HorshamWeather.Com Historical Data
 
Daily Summary for April 24, 2014 Units:  English    Metric   Both
« Previous Day
Next Day »
Daily Weekly Monthly Yearly Custom
  Current: High: Low: Average:
Temperature: 49.8 °F 63.7 °F 38.8 °F 51.1 °F
Dew Point: 17.2 °F 27.9 °F 13.9 °F 21.1 °F
Humidity: 27% 58% 15% 34%
Wind Speed: 0.0mph 13.0mph 1.0mph 3.6mph
Wind Gust: 0.0mph 16.0mph - -
WindCalm - - WSW
Pressure: 30.03 in 30.04 in 29.90 in -
Precipitation: 0.00 in      
Historical Graphs
 
 
Tabular Data for April 24, 2014
Time Temperature Dew Point Pressure Wind Wind Speed Wind Gust Humidity Rainfall Rate (Hourly)
00:00 43.4 °F 26.5 °F 29.92 in WNW 2.0 mph 3.0 mph 51% 0.00 in
00:01 43.4 °F 26.5 °F 29.92 in NW 4.0 mph 5.0 mph 51% 0.00 in
00:06 43.4 °F 26.5 °F 29.92 in WNW 3.0 mph 8.0 mph 51% 0.00 in
00:11 43.4 °F 26.5 °F 29.92 in West 6.0 mph 6.0 mph 51% 0.00 in
00:16 43.5 °F 26.6 °F 29.93 in West 2.0 mph 6.0 mph 51% 0.00 in
00:21 43.5 °F 26.6 °F 29.92 in West 1.0 mph 2.0 mph 51% 0.00 in
00:26 43.4 °F 26.5 °F 29.92 in WSW 1.0 mph 4.0 mph 51% 0.00 in
00:31 43.3 °F 26.9 °F 29.92 in West 2.0 mph 2.0 mph 52% 0.00 in
00:36 43.1 °F 27.1 °F 29.93 in WNW 2.0 mph 3.0 mph 53% 0.00 in
00:41 42.9 °F 26.5 °F 29.93 in WNW 3.0 mph 3.0 mph 52% 0.00 in
00:46 42.9 °F 27.0 °F 29.92 in West 2.0 mph 2.0 mph 53% 0.00 in
00:51 42.8 °F 26.9 °F 29.92 in WNW 1.0 mph 4.0 mph 53% 0.00 in
00:56 42.7 °F 26.8 °F 29.92 in West 2.0 mph 6.0 mph 53% 0.00 in
01:01 42.7 °F 27.2 °F 29.92 in WNW 2.0 mph 4.0 mph 54% 0.00 in
01:06 42.7 °F 27.2 °F 29.92 in WNW 2.0 mph 3.0 mph 54% 0.00 in
01:11 42.7 °F 27.2 °F 29.92 in WNW 2.0 mph 5.0 mph 54% 0.00 in
01:16 42.7 °F 27.2 °F 29.92 in WSW 2.0 mph 4.0 mph 54% 0.00 in
01:21 42.6 °F 27.6 °F 29.92 in NNW 2.0 mph 3.0 mph 55% 0.00 in
01:26 42.5 °F 27.9 °F 29.92 in West 2.0 mph 4.0 mph 56% 0.00 in
01:31 42.3 °F 27.3 °F 29.92 in Calm   3.0 mph 55% 0.00 in
01:36 42.2 °F 27.6 °F 29.92 in SSW 1.0 mph 2.0 mph 56% 0.00 in
01:41 42.0 °F 27.9 °F 29.91 in West 1.0 mph 2.0 mph 57% 0.00 in
01:46 41.8 °F 27.7 °F 29.91 in NW 3.0 mph 3.0 mph 57% 0.00 in
01:51 41.6 °F 27.5 °F 29.91 in WNW 1.0 mph 2.0 mph 57% 0.00 in
01:56 41.6 °F 27.5 °F 29.91 in West 3.0 mph 4.0 mph 57% 0.00 in
02:01 41.6 °F 27.9 °F 29.91 in West 1.0 mph 2.0 mph 58% 0.00 in
02:06 41.5 °F 27.4 °F 29.91 in West 3.0 mph 3.0 mph 57% 0.00 in
02:11 41.5 °F 27.4 °F 29.91 in NW 2.0 mph 3.0 mph 57% 0.00 in
02:16 41.6 °F 27.1 °F 29.91 in North 3.0 mph 3.0 mph 56% 0.00 in
02:21 41.7 °F 27.6 °F 29.91 in Calm   2.0 mph 57% 0.00 in
02:26 41.8 °F 27.3 °F 29.91 in WNW 1.0 mph 2.0 mph 56% 0.00 in
02:31 41.9 °F 27.4 °F 29.90 in NW 1.0 mph 4.0 mph 56% 0.00 in
02:36 42.0 °F 27.5 °F 29.91 in West 1.0 mph 2.0 mph 56% 0.00 in
02:41 41.9 °F 27.4 °F 29.91 in North 1.0 mph 3.0 mph 56% 0.00 in
02:46 41.9 °F 27.4 °F 29.91 in NW 3.0 mph 4.0 mph 56% 0.00 in
02:51 41.7 °F 27.2 °F 29.91 in NW 3.0 mph 4.0 mph 56% 0.00 in
02:56 41.7 °F 27.2 °F 29.91 in NNW 1.0 mph 2.0 mph 56% 0.00 in
03:01 41.7 °F 27.2 °F 29.91 in West 2.0 mph 3.0 mph 56% 0.00 in
03:06 41.7 °F 27.6 °F 29.91 in NNW 2.0 mph 4.0 mph 57% 0.00 in
03:11 41.7 °F 27.6 °F 29.91 in NW 3.0 mph 4.0 mph 57% 0.00 in
03:16 41.6 °F 27.1 °F 29.91 in WNW 3.0 mph 9.0 mph 56% 0.00 in
03:21 41.6 °F 27.1 °F 29.91 in WNW 2.0 mph 4.0 mph 56% 0.00 in
03:26 41.5 °F 27.0 °F 29.91 in Calm   4.0 mph 56% 0.00 in
03:31 41.5 °F 26.5 °F 29.91 in West 2.0 mph 6.0 mph 55% 0.00 in
03:36 41.4 °F 26.5 °F 29.91 in West 1.0 mph 3.0 mph 55% 0.00 in
03:41 41.4 °F 26.9 °F 29.91 in WNW 2.0 mph 2.0 mph 56% 0.00 in
03:46 41.3 °F 26.8 °F 29.92 in NNE 1.0 mph 2.0 mph 56% 0.00 in
03:51 41.1 °F 26.6 °F 29.92 in NNW 6.0 mph 6.0 mph 56% 0.00 in
03:56 41.3 °F 26.4 °F 29.92 in WNW 2.0 mph 3.0 mph 55% 0.00 in
04:01 41.3 °F 25.9 °F 29.92 in NNW 1.0 mph 2.0 mph 54% 0.00 in
04:06 41.3 °F 25.9 °F 29.93 in Calm   3.0 mph 54% 0.00 in
04:11 41.2 °F 25.8 °F 29.93 in WNW 1.0 mph 2.0 mph 54% 0.00 in
04:16 41.0 °F 25.6 °F 29.93 in West 2.0 mph 3.0 mph 54% 0.00 in
04:21 40.9 °F 25.1 °F 29.93 in NW 4.0 mph 8.0 mph 53% 0.00 in
04:26 40.8 °F 25.5 °F 29.93 in SW 1.0 mph 2.0 mph 54% 0.00 in
04:31 40.7 °F 24.9 °F 29.93 in WSW 3.0 mph 10.0 mph 53% 0.00 in
04:36 40.7 °F 24.5 °F 29.93 in NW 2.0 mph 4.0 mph 52% 0.00 in
04:41 40.8 °F 24.1 °F 29.93 in NW 1.0 mph 5.0 mph 51% 0.00 in
04:46 40.9 °F 23.7 °F 29.93 in WSW 3.0 mph 5.0 mph 50% 0.00 in
04:51 41.0 °F 23.8 °F 29.94 in NW 3.0 mph 3.0 mph 50% 0.00 in
04:56 41.0 °F 23.8 °F 29.94 in WNW 2.0 mph 6.0 mph 50% 0.00 in
05:01 40.9 °F 23.2 °F 29.94 in WNW 1.0 mph 3.0 mph 49% 0.00 in
05:06 40.9 °F 23.2 °F 29.94 in Calm   2.0 mph 49% 0.00 in
05:11 40.8 °F 23.1 °F 29.95 in NW 6.0 mph 6.0 mph 49% 0.00 in
05:16 40.7 °F 23.0 °F 29.95 in SSE 1.0 mph 3.0 mph 49% 0.00 in
05:21 40.6 °F 23.0 °F 29.95 in WNW 7.0 mph 7.0 mph 49% 0.00 in
05:26 40.6 °F 23.0 °F 29.96 in NNW 1.0 mph 2.0 mph 49% 0.00 in
05:31 40.5 °F 22.4 °F 29.96 in West 2.0 mph 3.0 mph 48% 0.00 in
05:36 40.2 °F 22.6 °F 29.96 in West 2.0 mph 5.0 mph 49% 0.00 in
05:41 40.0 °F 22.9 °F 29.96 in WSW 2.0 mph 2.0 mph 50% 0.00 in
05:46 39.9 °F 22.3 °F 29.96 in WSW 1.0 mph 4.0 mph 49% 0.00 in
05:51 39.7 °F 22.6 °F 29.97 in WNW 1.0 mph 3.0 mph 50% 0.00 in
05:56 39.5 °F 21.9 °F 29.97 in WNW 1.0 mph 4.0 mph 49% 0.00 in
06:01 39.3 °F 22.7 °F 29.97 in SW 1.0 mph 2.0 mph 51% 0.00 in
06:06 39.2 °F 21.7 °F 29.97 in WNW 3.0 mph 4.0 mph 49% 0.00 in
06:11 39.1 °F 22.5 °F 29.98 in SSW 1.0 mph 1.0 mph 51% 0.00 in
06:16 38.9 °F 20.9 °F 29.98 in WNW 1.0 mph 3.0 mph 48% 0.00 in
06:21 38.8 °F 21.8 °F 29.98 in West 2.0 mph 2.0 mph 50% 0.00 in
06:26 38.8 °F 21.3 °F 29.98 in West 1.0 mph 2.0 mph 49% 0.00 in
06:31 38.8 °F 21.8 °F 29.99 in SW 2.0 mph 3.0 mph 50% 0.00 in
06:36 38.8 °F 20.8 °F 29.99 in WNW 3.0 mph 4.0 mph 48% 0.00 in
06:41 39.0 °F 21.5 °F 29.99 in WNW 2.0 mph 8.0 mph 49% 0.00 in
06:46 39.3 °F 21.3 °F 29.99 in NNW 1.0 mph 2.0 mph 48% 0.00 in
06:51 39.4 °F 21.4 °F 29.99 in Calm   2.0 mph 48% 0.00 in
06:56 39.6 °F 21.5 °F 29.99 in SW 3.0 mph 6.0 mph 48% 0.00 in
07:01 39.7 °F 21.1 °F 30.00 in NW 5.0 mph 5.0 mph 47% 0.00 in
07:06 40.0 °F 20.9 °F 30.00 in WNW 4.0 mph 4.0 mph 46% 0.00 in
07:11 40.3 °F 21.2 °F 30.00 in WNW 2.0 mph 8.0 mph 46% 0.00 in
07:16 40.6 °F 20.9 °F 30.00 in WNW 3.0 mph 6.0 mph 45% 0.00 in
07:21 41.0 °F 20.8 °F 30.00 in WSW 4.0 mph 6.0 mph 44% 0.00 in
07:26 41.3 °F 21.6 °F 30.01 in WNW 2.0 mph 3.0 mph 45% 0.00 in
07:31 41.5 °F 21.8 °F 30.01 in NW 6.0 mph 7.0 mph 45% 0.00 in
07:36 41.8 °F 21.5 °F 30.01 in West 6.0 mph 6.0 mph 44% 0.00 in
07:41 42.2 °F 21.9 °F 30.01 in WNW 4.0 mph 6.0 mph 44% 0.00 in
07:46 42.6 °F 22.2 °F 30.01 in NW 8.0 mph 8.0 mph 44% 0.00 in
07:51 43.2 °F 21.7 °F 30.01 in West 3.0 mph 8.0 mph 42% 0.00 in
07:56 43.8 °F 21.6 °F 30.02 in NW 2.0 mph 4.0 mph 41% 0.00 in
08:01 44.3 °F 21.5 °F 30.02 in WNW 2.0 mph 6.0 mph 40% 0.00 in
08:06 44.7 °F 21.3 °F 30.02 in West 6.0 mph 13.0 mph 39% 0.00 in
08:11 45.3 °F 21.8 °F 30.02 in NNW 4.0 mph 6.0 mph 39% 0.00 in
08:16 45.9 °F 21.7 °F 30.02 in WNW 5.0 mph 7.0 mph 38% 0.00 in
08:21 46.3 °F 21.5 °F 30.02 in West 8.0 mph 8.0 mph 37% 0.00 in
08:26 46.7 °F 21.8 °F 30.03 in NNW 13.0 mph 13.0 mph 37% 0.00 in
08:31 46.9 °F 21.4 °F 30.02 in NE 3.0 mph 8.0 mph 36% 0.00 in
08:36 47.4 °F 21.1 °F 30.03 in WSW 2.0 mph 9.0 mph 35% 0.00 in
08:41 47.8 °F 20.1 °F 30.03 in West 1.0 mph 11.0 mph 33% 0.00 in
08:46 48.0 °F 21.0 °F 30.03 in NW 4.0 mph 10.0 mph 34% 0.00 in
08:51 48.0 °F 20.3 °F 30.03 in North 4.0 mph 14.0 mph 33% 0.00 in
08:56 48.1 °F 19.6 °F 30.03 in North 8.0 mph 13.0 mph 32% 0.00 in
09:01 48.4 °F 22.0 °F 30.03 in NW 2.0 mph 4.0 mph 35% 0.00 in
09:06 49.0 °F 21.2 °F 30.03 in NW 8.0 mph 8.0 mph 33% 0.00 in
09:11 49.3 °F 21.4 °F 30.03 in NNE 2.0 mph 4.0 mph 33% 0.00 in
09:16 49.6 °F 21.7 °F 30.03 in NE 2.0 mph 8.0 mph 33% 0.00 in
09:21 50.1 °F 21.4 °F 30.03 in North 4.0 mph 10.0 mph 32% 0.00 in
09:26 50.1 °F 19.9 °F 30.03 in West 3.0 mph 16.0 mph 30% 0.00 in
09:31 49.7 °F 20.3 °F 30.03 in North 4.0 mph 11.0 mph 31% 0.00 in
09:36 50.3 °F 20.8 °F 30.04 in WSW 5.0 mph 10.0 mph 31% 0.00 in
09:41 50.6 °F 21.1 °F 30.04 in WSW 4.0 mph 8.0 mph 31% 0.00 in
09:46 51.2 °F 22.4 °F 30.04 in West 8.0 mph 16.0 mph 32% 0.00 in
09:51 51.7 °F 21.3 °F 30.03 in NW 3.0 mph 7.0 mph 30% 0.00 in
09:56 52.3 °F 21.8 °F 30.03 in West 8.0 mph 8.0 mph 30% 0.00 in
10:01 52.7 °F 23.7 °F 30.03 in West 4.0 mph 12.0 mph 32% 0.00 in
10:06 52.3 °F 21.8 °F 30.03 in North 6.0 mph 8.0 mph 30% 0.00 in
10:11 51.9 °F 20.7 °F 30.03 in NW 4.0 mph 10.0 mph 29% 0.00 in
10:16 52.0 °F 20.8 °F 30.03 in NNW 4.0 mph 9.0 mph 29% 0.00 in
10:21 52.1 °F 20.8 °F 30.03 in WNW 11.0 mph 14.0 mph 29% 0.00 in
10:26 52.1 °F 20.0 °F 30.03 in NNW 2.0 mph 13.0 mph 28% 0.00 in
10:31 52.6 °F 21.3 °F 30.03 in NW 5.0 mph 8.0 mph 29% 0.00 in
10:36 52.6 °F 18.7 °F 30.03 in NW 5.0 mph 14.0 mph 26% 0.00 in
10:41 52.7 °F 19.7 °F 30.03 in NE 7.0 mph 11.0 mph 27% 0.00 in
10:46 52.9 °F 22.3 °F 30.03 in NNW 6.0 mph 6.0 mph 30% 0.00 in
10:51 53.5 °F 20.4 °F 30.03 in WSW 12.0 mph 12.0 mph 27% 0.00 in
10:56 54.0 °F 21.6 °F 30.03 in WSW 3.0 mph 6.0 mph 28% 0.00 in
11:01 54.2 °F 21.8 °F 30.03 in West 3.0 mph 5.0 mph 28% 0.00 in
11:06 54.6 °F 23.0 °F 30.04 in NW 6.0 mph 6.0 mph 29% 0.00 in
11:11 55.0 °F 22.5 °F 30.04 in NE 4.0 mph 7.0 mph 28% 0.00 in
11:17 55.3 °F 21.9 °F 30.04 in SW 3.0 mph 8.0 mph 27% 0.00 in
11:22 55.4 °F 21.1 °F 30.04 in North 5.0 mph 9.0 mph 26% 0.00 in
11:27 55.0 °F 21.6 °F 30.04 in NW 5.0 mph 11.0 mph 27% 0.00 in
11:32 55.0 °F 21.6 °F 30.04 in North 8.0 mph 13.0 mph 27% 0.00 in
11:37 55.4 °F 21.1 °F 30.04 in NNW 4.0 mph 14.0 mph 26% 0.00 in
11:42 55.2 °F 19.1 °F 30.03 in WSW 5.0 mph 11.0 mph 24% 0.00 in
11:47 55.7 °F 21.4 °F 30.03 in NNW 8.0 mph 13.0 mph 26% 0.00 in
11:52 55.9 °F 20.6 °F 30.03 in North 8.0 mph 12.0 mph 25% 0.00 in
11:57 55.8 °F 21.5 °F 30.03 in NNW 5.0 mph 6.0 mph 26% 0.00 in
12:02 56.0 °F 20.7 °F 30.03 in East 3.0 mph 9.0 mph 25% 0.00 in
12:07 56.2 °F 22.7 °F 30.03 in NW 5.0 mph 15.0 mph 27% 0.00 in
12:12 56.4 °F 20.1 °F 30.02 in WNW 3.0 mph 15.0 mph 24% 0.00 in
12:17 56.9 °F 23.3 °F 30.02 in ENE 8.0 mph 10.0 mph 27% 0.00 in
12:22 57.2 °F 20.8 °F 30.02 in WNW 4.0 mph 11.0 mph 24% 0.00 in
12:27 57.5 °F 22.0 °F 30.01 in WNW 2.0 mph 8.0 mph 25% 0.00 in
12:32 58.2 °F 22.6 °F 30.01 in NW 5.0 mph 9.0 mph 25% 0.00 in
12:37 58.1 °F 21.5 °F 30.01 in North 8.0 mph 12.0 mph 24% 0.00 in
12:42 58.0 °F 21.4 °F 30.01 in WNW 2.0 mph 10.0 mph 24% 0.00 in
12:47 58.2 °F 20.6 °F 30.00 in WSW 3.0 mph 14.0 mph 23% 0.00 in
12:52 58.6 °F 21.9 °F 30.00 in WNW 5.0 mph 12.0 mph 24% 0.00 in
12:57 59.1 °F 26.9 °F 30.00 in NNE 1.0 mph 4.0 mph 29% 0.00 in
13:02 59.4 °F 21.6 °F 29.99 in West 3.0 mph 7.0 mph 23% 0.00 in
13:07 59.2 °F 22.5 °F 29.99 in NW 5.0 mph 10.0 mph 24% 0.00 in
13:12 58.8 °F 19.0 °F 29.99 in NNW 4.0 mph 10.0 mph 21% 0.00 in
13:17 58.8 °F 22.1 °F 29.99 in NNW 3.0 mph 13.0 mph 24% 0.00 in
13:22 59.1 °F 23.3 °F 29.99 in NNW 11.0 mph 11.0 mph 25% 0.00 in
13:27 59.3 °F 22.5 °F 29.99 in NE 6.0 mph 14.0 mph 24% 0.00 in
13:32 59.5 °F 20.6 °F 29.99 in NW 5.0 mph 15.0 mph 22% 0.00 in
13:37 59.8 °F 20.9 °F 29.99 in WSW 4.0 mph 13.0 mph 22% 0.00 in
13:42 59.8 °F 23.0 °F 29.99 in NW 4.0 mph 11.0 mph 24% 0.00 in
13:47 59.7 °F 19.7 °F 29.98 in NW 3.0 mph 9.0 mph 21% 0.00 in
13:52 59.7 °F 24.8 °F 29.98 in NNW 6.0 mph 8.0 mph 26% 0.00 in
13:57 60.2 °F 23.3 °F 29.98 in NNE 5.0 mph 8.0 mph 24% 0.00 in
14:02 60.6 °F 21.6 °F 29.98 in WNW 9.0 mph 9.0 mph 22% 0.00 in
14:07 60.8 °F 21.7 °F 29.98 in NW 6.0 mph 10.0 mph 22% 0.00 in
14:12 60.8 °F 23.8 °F 29.98 in West 2.0 mph 8.0 mph 24% 0.00 in
14:17 60.8 °F 21.7 °F 29.97 in North 5.0 mph 11.0 mph 22% 0.00 in
14:22 61.1 °F 20.9 °F 29.98 in WNW 9.0 mph 12.0 mph 21% 0.00 in
14:27 61.2 °F 19.8 °F 29.97 in NNE 5.0 mph 9.0 mph 20% 0.00 in
14:32 61.4 °F 21.1 °F 29.97 in NNW 3.0 mph 10.0 mph 21% 0.00 in
14:37 61.2 °F 19.8 °F 29.97 in NW 10.0 mph 13.0 mph 20% 0.00 in
14:41 61.1 °F 19.8 °F 29.97 in WNW 3.0 mph 9.0 mph 20% 0.00 in
14:46 61.2 °F 18.6 °F 29.97 in North 6.0 mph 6.0 mph 19% 0.00 in
14:51 61.3 °F 18.7 °F 29.97 in West 7.0 mph 9.0 mph 19% 0.00 in
14:56 61.4 °F 18.8 °F 29.97 in North 10.0 mph 13.0 mph 19% 0.00 in
15:01 61.3 °F 18.7 °F 29.97 in NW 6.0 mph 14.0 mph 19% 0.00 in
15:06 61.2 °F 19.8 °F 29.97 in WNW 8.0 mph 8.0 mph 20% 0.00 in
15:11 61.6 °F 20.2 °F 29.97 in NW 5.0 mph 7.0 mph 20% 0.00 in
15:16 62.0 °F 19.3 °F 29.97 in NW 12.0 mph 12.0 mph 19% 0.00 in
15:21 62.1 °F 18.1 °F 29.96 in NNW 3.0 mph 11.0 mph 18% 0.00 in
15:26 62.2 °F 20.7 °F 29.97 in NNW 9.0 mph 9.0 mph 20% 0.00 in
15:31 62.2 °F 19.5 °F 29.96 in NW 5.0 mph 5.0 mph 19% 0.00 in
15:36 62.2 °F 19.5 °F 29.96 in NW 4.0 mph 12.0 mph 19% 0.00 in
15:41 62.2 °F 20.7 °F 29.96 in NW 6.0 mph 10.0 mph 20% 0.00 in
15:46 62.4 °F 19.6 °F 29.96 in NNW 4.0 mph 5.0 mph 19% 0.00 in
15:51 62.3 °F 18.3 °F 29.95 in SW 3.0 mph 7.0 mph 18% 0.00 in
15:56 62.6 °F 19.8 °F 29.95 in WSW 2.0 mph 3.0 mph 19% 0.00 in
16:01 62.6 °F 17.2 °F 29.95 in NE 3.0 mph 12.0 mph 17% 0.00 in
16:06 62.7 °F 19.9 °F 29.95 in WNW 4.0 mph 7.0 mph 19% 0.00 in
16:11 62.8 °F 20.0 °F 29.95 in NNE 2.0 mph 4.0 mph 19% 0.00 in
16:16 63.0 °F 18.9 °F 29.95 in West 2.0 mph 11.0 mph 18% 0.00 in
16:21 63.4 °F 16.5 °F 29.95 in WSW 3.0 mph 9.0 mph 16% 0.00 in
16:26 63.5 °F 17.9 °F 29.95 in ESE 1.0 mph 11.0 mph 17% 0.00 in
16:31 63.5 °F 16.5 °F 29.94 in West 4.0 mph 14.0 mph 16% 0.00 in
16:36 63.6 °F 18.0 °F 29.94 in WNW 7.0 mph 8.0 mph 17% 0.00 in
16:41 63.6 °F 16.6 °F 29.94 in NW 5.0 mph 10.0 mph 16% 0.00 in
16:46 63.7 °F 16.7 °F 29.95 in West 2.0 mph 6.0 mph 16% 0.00 in
16:51 63.6 °F 16.6 °F 29.95 in SW 2.0 mph 9.0 mph 16% 0.00 in
16:56 63.5 °F 17.9 °F 29.95 in NW 5.0 mph 8.0 mph 17% 0.00 in
17:01 63.3 °F 17.8 °F 29.95 in WNW 3.0 mph 12.0 mph 17% 0.00 in
17:06 62.9 °F 17.5 °F 29.95 in NNW 6.0 mph 9.0 mph 17% 0.00 in
17:11 62.7 °F 15.9 °F 29.95 in NE 5.0 mph 8.0 mph 16% 0.00 in
17:16 62.7 °F 15.9 °F 29.95 in WNW 1.0 mph 4.0 mph 16% 0.00 in
17:21 62.6 °F 15.8 °F 29.95 in NW 3.0 mph 6.0 mph 16% 0.00 in
17:26 62.4 °F 17.0 °F 29.95 in WSW 3.0 mph 3.0 mph 17% 0.00 in
17:31 62.2 °F 14.0 °F 29.96 in NE 4.0 mph 11.0 mph 15% 0.00 in
17:36 61.8 °F 16.5 °F 29.96 in North 6.0 mph 6.0 mph 17% 0.00 in
17:41 61.6 °F 17.7 °F 29.96 in West 4.0 mph 5.0 mph 18% 0.00 in
17:46 61.6 °F 16.4 °F 29.96 in North 2.0 mph 9.0 mph 17% 0.00 in
17:51 61.5 °F 14.9 °F 29.96 in NNW 11.0 mph 13.0 mph 16% 0.00 in
17:56 61.3 °F 16.1 °F 29.96 in North 4.0 mph 7.0 mph 17% 0.00 in
18:01 61.2 °F 18.6 °F 29.96 in NNE 2.0 mph 4.0 mph 19% 0.00 in
18:06 61.0 °F 15.9 °F 29.97 in NW 3.0 mph 9.0 mph 17% 0.00 in
18:11 60.8 °F 15.7 °F 29.97 in NNW 2.0 mph 6.0 mph 17% 0.00 in
18:16 60.7 °F 17.0 °F 29.97 in NW 9.0 mph 9.0 mph 18% 0.00 in
18:21 60.7 °F 17.0 °F 29.97 in North 2.0 mph 4.0 mph 18% 0.00 in
18:26 60.5 °F 18.1 °F 29.97 in NW 7.0 mph 9.0 mph 19% 0.00 in
18:31 60.2 °F 16.6 °F 29.97 in WNW 9.0 mph 10.0 mph 18% 0.00 in
18:36 59.9 °F 16.3 °F 29.97 in NNW 4.0 mph 5.0 mph 18% 0.00 in
18:41 59.6 °F 16.1 °F 29.97 in NNE 5.0 mph 6.0 mph 18% 0.00 in
18:46 59.3 °F 15.8 °F 29.97 in WNW 7.0 mph 8.0 mph 18% 0.00 in
18:51 59.1 °F 15.7 °F 29.98 in NNE 3.0 mph 7.0 mph 18% 0.00 in
18:56 58.9 °F 16.7 °F 29.97 in NNW 1.0 mph 2.0 mph 19% 0.00 in
19:01 58.7 °F 16.6 °F 29.98 in NE 3.0 mph 4.0 mph 19% 0.00 in
19:06 58.5 °F 15.2 °F 29.98 in North 2.0 mph 9.0 mph 18% 0.00 in
19:11 58.4 °F 15.1 °F 29.98 in NNW 2.0 mph 9.0 mph 18% 0.00 in
19:16 58.2 °F 14.9 °F 29.98 in NE 2.0 mph 3.0 mph 18% 0.00 in
19:21 58.0 °F 14.8 °F 29.98 in NNE 6.0 mph 8.0 mph 18% 0.00 in
19:26 57.9 °F 15.9 °F 29.98 in NW 1.0 mph 2.0 mph 19% 0.00 in
19:31 57.6 °F 15.7 °F 29.99 in North 6.0 mph 8.0 mph 19% 0.00 in
19:36 57.4 °F 14.3 °F 29.99 in NNE 3.0 mph 3.0 mph 18% 0.00 in
19:41 57.2 °F 15.3 °F 29.99 in NW 3.0 mph 3.0 mph 19% 0.00 in
19:46 57.0 °F 13.9 °F 30.00 in NNW 1.0 mph 2.0 mph 18% 0.00 in
19:51 56.7 °F 14.9 °F 30.00 in North 3.0 mph 3.0 mph 19% 0.00 in
19:56 56.4 °F 15.9 °F 30.00 in NNW 3.0 mph 9.0 mph 20% 0.00 in
20:01 56.1 °F 14.4 °F 30.00 in WNW 4.0 mph 5.0 mph 19% 0.00 in
20:06 55.9 °F 14.3 °F 30.01 in NNE 2.0 mph 4.0 mph 19% 0.00 in
20:11 55.7 °F 15.3 °F 30.00 in NNW 2.0 mph 3.0 mph 20% 0.00 in
20:16 55.4 °F 15.0 °F 30.01 in NNE 2.0 mph 2.0 mph 20% 0.00 in
20:21 55.2 °F 14.9 °F 30.01 in North 2.0 mph 4.0 mph 20% 0.00 in
20:26 55.1 °F 14.8 °F 30.01 in NNW 1.0 mph 4.0 mph 20% 0.00 in
20:31 54.9 °F 15.7 °F 30.01 in NNW 1.0 mph 2.0 mph 21% 0.00 in
20:36 54.7 °F 15.6 °F 30.01 in NW 2.0 mph 3.0 mph 21% 0.00 in
20:41 54.5 °F 15.4 °F 30.01 in North 3.0 mph 4.0 mph 21% 0.00 in
20:46 54.3 °F 15.2 °F 30.01 in NNE 1.0 mph 2.0 mph 21% 0.00 in
20:51 54.1 °F 15.1 °F 30.02 in North 1.0 mph 4.0 mph 21% 0.00 in
20:56 53.8 °F 16.9 °F 30.02 in NNW 1.0 mph 2.0 mph 23% 0.00 in
21:01 53.5 °F 16.6 °F 30.02 in North 2.0 mph 3.0 mph 23% 0.00 in
21:06 53.2 °F 16.4 °F 30.02 in Calm   1.0 mph 23% 0.00 in
21:11 53.0 °F 16.2 °F 30.02 in Calm   2.0 mph 23% 0.00 in
21:16 52.8 °F 16.0 °F 30.02 in NE 2.0 mph 2.0 mph 23% 0.00 in
21:21 52.7 °F 16.0 °F 30.02 in North 1.0 mph 2.0 mph 23% 0.00 in
21:26 52.5 °F 16.8 °F 30.02 in Calm   1.0 mph 24% 0.00 in
21:31 52.3 °F 16.6 °F 30.02 in Calm   1.0 mph 24% 0.00 in
21:36 52.1 °F 16.4 °F 30.03 in Calm   1.0 mph 24% 0.00 in
21:41 51.7 °F 16.1 °F 30.03 in North 1.0 mph 1.0 mph 24% 0.00 in
21:46 51.4 °F 16.8 °F 30.03 in NNW 2.0 mph 3.0 mph 25% 0.00 in
21:51 51.2 °F 16.6 °F 30.03 in North 1.0 mph 2.0 mph 25% 0.00 in
21:56 51.1 °F 16.5 °F 30.03 in NNW 1.0 mph 1.0 mph 25% 0.00 in
22:01 51.0 °F 17.3 °F 30.03 in Calm   1.0 mph 26% 0.00 in
22:06 50.8 °F 18.9 °F 30.03 in NW 1.0 mph 1.0 mph 28% 0.00 in
22:11 50.5 °F 18.6 °F 30.03 in NW 1.0 mph 3.0 mph 28% 0.00 in
22:16 50.1 °F 16.6 °F 30.03 in Calm     26% 0.00 in
22:21 49.8 °F 17.2 °F 30.03 in Calm     27% 0.00 in
HorshamWeather.Com
Compliments of Weather Underground